Time;durP1;ratioP1;P1;durP2;ratioP2;P2;SDS_P1;SDS_P2;PMS_P1;PMS_P2;Temp;Humidity;BMP_temperature;BMP_pressure;BME280_temperature;BME280_humidity;BME280_pressure;Samples;Min_cycle;Max_cycle;Signal;HPM_P1;HPM_P2
2021/03/10 00:00:36;;;;;;;5.75;2.92;;;;;;;0.96;43.56;97796.23;1713287;83;21385;-62
2021/03/10 00:03:06;;;;;;;4.75;2.85;;;;;;;0.83;44.21;97793.99;1713107;83;21117;-63
2021/03/10 00:05:47;;;;;;;2.83;1.85;;;;;;;0.76;44.42;97802.92;1741902;82;21186;-65
2021/03/10 00:08:15;;;;;;;3.17;2.70;;;;;;;0.71;44.22;97794.68;1743191;82;21130;-64
2021/03/10 00:10:45;;;;;;;3.65;2.55;;;;;;;0.65;43.84;97794.59;1743291;82;21242;-64
2021/03/10 00:13:13;;;;;;;3.72;2.95;;;;;;;0.58;44.52;97789.91;1742971;82;21146;-63
2021/03/10 00:15:41;;;;;;;8.08;3.05;;;;;;;0.50;45.01;97792.89;1743050;82;21198;-64
2021/03/10 00:18:11;;;;;;;4.15;2.12;;;;;;;0.44;44.06;97791.48;1743344;82;21193;-63
2021/03/10 00:20:38;;;;;;;4.37;2.95;;;;;;;0.41;43.58;97790.37;1743035;82;21134;-62
2021/03/10 00:23:07;;;;;;;1.90;1.67;;;;;;;0.38;44.03;97793.56;1743120;82;21582;-61
2021/03/10 00:25:34;;;;;;;5.42;2.15;;;;;;;0.34;44.74;97779.31;1743080;82;21631;-62
2021/03/10 00:28:05;;;;;;;4.47;2.60;;;;;;;0.27;45.38;97781.35;1743289;82;21157;-62
2021/03/10 00:30:33;;;;;;;2.58;1.95;;;;;;;0.19;45.37;97782.25;1743060;82;21146;-62
2021/03/10 00:33:01;;;;;;;5.12;2.10;;;;;;;0.15;45.03;97780.77;1743147;82;21186;-63
2021/03/10 00:35:31;;;;;;;6.03;2.33;;;;;;;0.09;45.00;97784.91;1743111;82;21162;-62
2021/03/10 00:38:01;;;;;;;3.30;1.52;;;;;;;0.02;46.62;97777.67;1743287;82;21170;-61
2021/03/10 00:40:30;;;;;;;3.30;2.05;;;;;;;-0.03;46.38;97780.46;1743311;82;21611;-62
2021/03/10 00:43:00;;;;;;;2.55;1.82;;;;;;;-0.08;46.26;97778.14;1743345;82;21603;-67
2021/03/10 00:45:28;;;;;;;3.77;1.87;;;;;;;-0.08;46.26;97778.14;1743379;82;21131;-62
2021/03/10 00:47:58;;;;;;;6.85;2.35;;;;;;;-0.12;45.70;97769.00;1743203;82;21166;-64
2021/03/10 00:50:28;;;;;;;3.58;2.30;;;;;;;-0.13;45.43;97768.66;1743126;82;21182;-62
2021/03/10 00:52:57;;;;;;;4.45;3.02;;;;;;;-0.15;45.86;97765.80;1743160;82;21233;-62
2021/03/10 00:55:25;;;;;;;7.22;2.72;;;;;;;-0.26;46.37;97763.82;1743204;82;21134;-66
2021/03/10 00:57:53;;;;;;;6.28;3.05;;;;;;;-0.26;46.37;97763.82;1743224;82;21157;-62
2021/03/10 01:00:22;;;;;;;3.58;1.87;;;;;;;-0.22;46.13;97770.41;1743336;82;21221;-62
2021/03/10 01:02:50;;;;;;;3.55;2.10;;;;;;;-0.26;46.47;97761.72;1743076;82;21162;-62
2021/03/10 01:05:18;;;;;;;3.65;2.92;;;;;;;-0.38;47.30;97764.91;1741335;82;21182;-62
2021/03/10 01:07:47;;;;;;;4.17;2.12;;;;;;;-0.38;47.30;97764.91;1740381;82;21185;-62
2021/03/10 01:10:16;;;;;;;3.52;2.00;;;;;;;-0.41;46.11;97765.08;1740536;82;21166;-62
2021/03/10 01:12:45;;;;;;;1.98;1.55;;;;;;;-0.42;46.62;97759.14;1740529;82;21190;-62
2021/03/10 01:15:20;;;;;;;4.22;2.35;;;;;;;-0.57;47.49;97755.67;1740592;82;21166;-62
2021/03/10 01:17:48;;;;;;;2.83;1.65;;;;;;;-0.57;47.49;97755.67;1740497;82;21167;-62
2021/03/10 01:20:20;;;;;;;5.08;1.90;;;;;;;-0.62;48.08;97758.08;1740438;82;21205;-62
2021/03/10 01:22:48;;;;;;;2.20;1.65;;;;;;;-0.58;46.56;97753.19;1740666;82;21276;-61
2021/03/10 01:25:16;;;;;;;5.53;2.25;;;;;;;-0.57;46.32;97751.84;1740514;82;21279;-61
2021/03/10 01:27:44;;;;;;;4.85;2.92;;;;;;;-0.68;47.83;97750.30;1740476;82;21157;-64
2021/03/10 01:30:15;;;;;;;4.75;2.77;;;;;;;-0.68;47.83;97750.30;1740852;82;21166;-61
2021/03/10 01:32:44;;;;;;;1.85;1.65;;;;;;;-0.68;46.76;97751.58;1740654;82;21137;-61
2021/03/10 01:35:13;;;;;;;5.08;1.90;;;;;;;-0.70;47.82;97749.55;1740676;82;21165;-63
2021/03/10 01:37:42;;;;;;;5.55;2.17;;;;;;;-0.72;48.19;97746.71;1740688;82;21158;-63
2021/03/10 01:40:16;;;;;;;2.98;1.98;;;;;;;-0.72;48.19;97746.71;1740538;82;21154;-61
2021/03/10 01:42:45;;;;;;;1.92;1.75;;;;;;;-0.73;47.74;97743.78;1740596;82;21158;-61
2021/03/10 01:45:15;;;;;;;3.85;1.70;;;;;;;-0.73;47.21;97742.51;1740608;82;21206;-61
2021/03/10 01:47:46;;;;;;;2.75;2.10;;;;;;;-0.75;46.32;97745.16;1740423;82;21586;-62
2021/03/10 01:50:18;;;;;;;4.45;2.47;;;;;;;-0.75;46.32;97745.16;1740316;82;21182;-62
2021/03/10 01:52:47;;;;;;;5.92;3.22;;;;;;;-0.82;47.88;97737.45;1740654;82;21568;-64
2021/03/10 01:55:15;;;;;;;3.62;2.22;;;;;;;-0.82;47.88;97737.45;1740336;82;21173;-62
2021/03/10 01:57:44;;;;;;;12.07;2.05;;;;;;;-0.86;48.62;97744.05;1740563;82;21591;-62
2021/03/10 02:00:13;;;;;;;1.95;1.77;;;;;;;-0.85;48.08;97743.95;1740443;81;21217;-62
2021/03/10 02:02:42;;;;;;;2.70;1.80;;;;;;;-0.85;48.11;97740.13;1740488;82;21174;-62
2021/03/10 02:05:18;;;;;;;3.17;1.95;;;;;;;-0.85;47.80;97744.41;1731460;82;21701;-62
2021/03/10 02:08:09;;;;;;;2.30;2.10;;;;;;;-0.85;46.92;97745.23;1722663;83;21189;-62
2021/03/10 02:11:12;;;;;;;3.30;2.70;;;;;;;-0.84;47.59;97742.23;1722985;82;21586;-66
2021/03/10 02:14:03;;;;;;;3.72;1.77;;;;;;;-0.84;47.59;97742.23;1722749;82;21166;-64
2021/03/10 02:17:03;;;;;;;2.83;1.72;;;;;;;-0.86;47.32;97742.78;1722557;82;21236;-61
2021/03/10 02:20:09;;;;;;;3.00;1.90;;;;;;;-0.82;47.69;97741.27;1663423;85;21161;-62
2021/03/10 02:23:09;;;;;;;2.55;1.82;;;;;;;-0.83;47.45;97742.62;1693939;83;21574;-63
2021/03/10 02:26:23;;;;;;;2.37;2.17;;;;;;;-0.87;47.40;97744.50;1693797;85;21149;-62
2021/03/10 02:28:54;;;;;;;2.98;1.85;;;;;;;-0.87;47.40;97744.50;1693860;83;21138;-62
2021/03/10 02:31:22;;;;;;;4.62;3.75;;;;;;;-0.91;48.71;97741.73;1693855;85;21157;-63
2021/03/10 02:33:51;;;;;;;3.42;2.12;;;;;;;-0.94;48.21;97740.62;1694038;83;21185;-62
2021/03/10 02:36:22;;;;;;;4.33;3.10;;;;;;;-0.97;48.94;97732.66;1693862;83;22264;-62
2021/03/10 02:38:51;;;;;;;8.53;2.42;;;;;;;-1.00;48.95;97736.64;1694137;85;21606;-66
2021/03/10 02:41:21;;;;;;;10.65;3.05;;;;;;;-1.04;49.49;97738.14;1694028;83;21184;-62
2021/03/10 02:43:52;;;;;;;3.12;2.15;;;;;;;-1.09;49.13;97741.39;1694090;83;21144;-62
2021/03/10 02:46:21;;;;;;;4.65;2.20;;;;;;;-1.09;49.13;97741.39;1694435;84;21200;-62
2021/03/10 02:48:50;;;;;;;3.55;2.87;;;;;;;-1.17;49.48;97732.03;1694481;83;21125;-62
2021/03/10 02:51:20;;;;;;;1.92;1.45;;;;;;;-1.16;49.64;97744.67;1694278;83;21186;-62
2021/03/10 02:53:50;;;;;;;3.90;2.15;;;;;;;-1.16;50.35;97743.40;1694087;83;21161;-61
2021/03/10 02:56:19;;;;;;;4.37;2.92;;;;;;;-1.16;50.36;97741.30;1694261;85;21193;-63
2021/03/10 02:58:47;;;;;;;12.35;3.60;;;;;;;-1.21;51.45;97737.73;1694179;84;21149;-60
2021/03/10 03:01:15;;;;;;;2.87;2.25;;;;;;;-1.21;50.59;97731.80;1693950;83;21569;-60
2021/03/10 03:03:44;;;;;;;1.85;1.65;;;;;;;-1.23;51.75;97729.77;1694158;83;21114;-60
2021/03/10 03:06:12;;;;;;;2.67;2.12;;;;;;;-1.23;51.75;97729.77;1694676;83;21135;-64
2021/03/10 03:08:40;;;;;;;11.93;2.92;;;;;;;-1.31;51.93;97725.05;1694533;85;21225;-67
2021/03/10 03:11:08;;;;;;;4.58;2.95;;;;;;;-1.30;51.34;97729.70;1694239;85;21106;-61
2021/03/10 03:13:36;;;;;;;2.52;1.55;;;;;;;-1.28;50.87;97724.89;1697387;83;21110;-61
2021/03/10 03:16:06;;;;;;;3.90;2.70;;;;;;;-1.24;50.41;97726.39;1694439;85;21228;-63
2021/03/10 03:18:35;;;;;;;3.08;2.65;;;;;;;-1.21;50.52;97733.91;1694667;84;21582;-62
2021/03/10 03:21:05;;;;;;;6.75;2.65;;;;;;;-1.20;50.30;97731.71;1694844;85;21189;-67
2021/03/10 03:23:33;;;;;;;1.95;1.82;;;;;;;-1.18;50.24;97736.74;1694648;83;21169;-64
2021/03/10 03:26:01;;;;;;;8.95;4.15;;;;;;;-1.19;50.33;97732.53;1694879;84;21556;-61
2021/03/10 03:28:30;;;;;;;3.70;2.35;;;;;;;-1.19;50.33;97736.36;1694456;83;21190;-61
2021/03/10 03:30:59;;;;;;;4.62;2.98;;;;;;;-1.19;50.35;97737.19;1694020;83;21546;-62
2021/03/10 03:33:28;;;;;;;3.72;2.12;;;;;;;-1.19;50.66;97737.19;1693982;83;21225;-66
2021/03/10 03:35:58;;;;;;;5.10;2.35;;;;;;;-1.27;51.39;97731.64;1694012;83;21570;-62
2021/03/10 03:38:29;;;;;;;4.37;2.80;;;;;;;-1.33;51.31;97738.33;1665620;85;21220;-62
2021/03/10 03:40:57;;;;;;;5.12;2.95;;;;;;;-1.37;51.87;97734.28;1694110;84;21558;-64
2021/03/10 03:43:28;;;;;;;1.67;1.57;;;;;;;-1.43;52.53;97740.93;1693995;84;21662;-63
2021/03/10 03:45:56;;;;;;;3.25;1.22;;;;;;;-1.49;52.26;97734.88;1693874;84;21177;-62
2021/03/10 03:48:24;;;;;;;4.80;2.02;;;;;;;-1.52;52.12;97735.03;1693814;85;21153;-62
2021/03/10 03:50:54;;;;;;;1.92;1.52;;;;;;;-1.53;51.66;97736.75;1693898;84;21146;-62
2021/03/10 03:53:22;;;;;;;2.60;2.10;;;;;;;-1.51;52.07;97739.20;1694067;83;21582;-62
2021/03/10 03:55:50;;;;;;;2.65;2.15;;;;;;;-1.51;52.74;97740.03;1693793;85;21169;-66
2021/03/10 03:58:18;;;;;;;1.92;1.57;;;;;;;-1.54;52.00;97738.91;1693846;84;21150;-63
2021/03/10 04:00:46;;;;;;;4.00;2.58;;;;;;;-1.52;51.11;97735.83;1694128;85;21134;-64
2021/03/10 04:03:14;;;;;;;5.92;2.60;;;;;;;-1.51;51.91;97744.30;1694022;83;21188;-61
2021/03/10 04:05:44;;;;;;;4.55;2.05;;;;;;;-1.51;51.51;97744.30;1694455;83;21566;-69
2021/03/10 04:08:12;;;;;;;3.60;1.75;;;;;;;-1.54;51.42;97752.92;1694305;84;21213;-62
2021/03/10 04:10:41;;;;;;;1.95;1.72;;;;;;;-1.54;51.71;97749.09;1693995;83;21555;-64
2021/03/10 04:13:09;;;;;;;1.40;1.12;;;;;;;-1.56;51.31;97743.27;1693822;83;21126;-63
2021/03/10 04:15:37;;;;;;;2.33;1.90;;;;;;;-1.56;50.99;97741.17;1694270;84;21414;-62
2021/03/10 04:18:06;;;;;;;2.35;2.05;;;;;;;-1.59;50.80;97744.66;1693368;85;21170;-62
2021/03/10 04:20:34;;;;;;;2.45;2.25;;;;;;;-1.59;50.68;97743.84;1694010;83;21165;-62
2021/03/10 04:23:02;;;;;;;1.80;1.50;;;;;;;-1.60;50.93;97741.77;1694271;85;21627;-63
2021/03/10 04:25:30;;;;;;;2.20;1.60;;;;;;;-1.62;50.59;97743.99;1693879;85;21147;-62
2021/03/10 04:27:57;;;;;;;2.65;2.37;;;;;;;-1.64;50.58;97746.63;1693717;83;21150;-63
2021/03/10 04:30:26;;;;;;;4.95;2.35;;;;;;;-1.66;50.83;97747.58;1693861;85;21150;-65
2021/03/10 04:32:53;;;;;;;3.05;2.05;;;;;;;-1.70;51.93;97746.91;1693874;85;21118;-61
2021/03/10 04:35:22;;;;;;;3.33;2.02;;;;;;;-1.73;51.32;97747.05;1694142;83;21137;-61
2021/03/10 04:37:50;;;;;;;5.42;3.50;;;;;;;-1.73;51.74;97744.95;1693843;84;21174;-61
2021/03/10 04:40:20;;;;;;;2.60;1.55;;;;;;;-1.73;51.75;97739.42;1694039;85;21148;-63
2021/03/10 04:42:48;;;;;;;4.40;2.33;;;;;;;-1.75;51.73;97740.40;1694199;85;21202;-61
2021/03/10 04:45:17;;;;;;;2.75;2.37;;;;;;;-1.76;51.30;97748.92;1694436;83;21149;-63
2021/03/10 04:47:46;;;;;;;2.30;2.10;;;;;;;-1.80;51.92;97748.69;1694213;85;21160;-62
2021/03/10 04:50:16;;;;;;;4.40;1.60;;;;;;;-1.82;51.10;97747.48;1694189;83;21256;-66
2021/03/10 04:52:45;;;;;;;2.50;2.30;;;;;;;-1.86;50.95;97744.70;1693872;83;21149;-67
2021/03/10 04:55:13;;;;;;;2.45;1.47;;;;;;;-1.91;50.77;97745.38;1693837;85;21189;-61
2021/03/10 04:57:41;;;;;;;4.47;2.65;;;;;;;-1.96;51.60;97744.31;1693752;83;21153;-63
2021/03/10 05:00:11;;;;;;;4.97;1.60;;;;;;;-1.98;51.50;97747.36;1693881;85;21134;-60
2021/03/10 05:02:40;;;;;;;2.55;1.75;;;;;;;-2.01;51.48;97751.33;1693769;84;21122;-62
2021/03/10 05:05:30;;;;;;;7.85;2.70;;;;;;;-2.05;51.25;97752.37;1693923;83;21204;-62
2021/03/10 05:07:59;;;;;;;4.08;2.37;;;;;;;-2.06;51.12;97753.70;1729843;81;21157;-62
2021/03/10 05:10:27;;;;;;;2.10;1.22;;;;;;;-2.07;51.31;97757.98;1729811;83;21133;-62
2021/03/10 05:12:55;;;;;;;2.70;2.15;;;;;;;-2.08;51.98;97762.69;1729740;83;21173;-62
2021/03/10 05:15:24;;;;;;;4.72;1.77;;;;;;;-2.06;52.67;97765.14;1729939;83;21150;-62
2021/03/10 05:17:54;;;;;;;1.40;1.30;;;;;;;-2.04;52.26;97762.10;1729800;83;21103;-62
2021/03/10 05:20:22;;;;;;;4.47;1.72;;;;;;;-2.03;52.49;97763.31;1730040;83;21114;-62
2021/03/10 05:22:50;;;;;;;1.92;1.45;;;;;;;-1.98;51.07;97769.00;1729693;81;21173;-61
2021/03/10 05:25:18;;;;;;;3.12;2.62;;;;;;;-1.99;52.20;97764.83;1729638;83;21193;-61
2021/03/10 05:27:46;;;;;;;2.30;2.08;;;;;;;-1.99;53.19;97769.08;1730182;83;21146;-63
2021/03/10 05:30:35;;;;;;;8.95;2.58;;;;;;;-1.97;52.44;97758.38;1729711;82;21146;-65
2021/03/10 05:33:04;;;;;;;2.20;1.72;;;;;;;-2.02;53.31;97767.48;1671166;84;21188;-66
2021/03/10 05:35:32;;;;;;;1.40;1.30;;;;;;;-2.08;52.92;97767.78;1671124;84;21160;-61
2021/03/10 05:38:00;;;;;;;5.97;2.35;;;;;;;-2.06;53.24;97766.42;1671297;84;21161;-61
2021/03/10 05:40:31;;;;;;;2.42;2.10;;;;;;;-1.98;52.25;97766.89;1671096;84;21236;-62
2021/03/10 05:42:59;;;;;;;3.42;1.65;;;;;;;-1.92;51.62;97767.45;1671355;84;21273;-61
2021/03/10 05:45:28;;;;;;;3.10;1.80;;;;;;;-1.83;51.73;97766.21;1671115;84;21165;-61
2021/03/10 05:47:55;;;;;;;3.42;1.65;;;;;;;-1.76;51.51;97763.75;1638516;87;21164;-62
2021/03/10 05:50:25;;;;;;;4.47;2.45;;;;;;;-1.72;51.20;97770.80;1633625;86;21184;-62
2021/03/10 05:52:55;;;;;;;1.45;1.35;;;;;;;-1.70;50.89;97771.53;1633355;86;21204;-63
2021/03/10 05:55:25;;;;;;;2.52;2.35;;;;;;;-1.65;50.30;97774.70;1633604;86;21267;-63
2021/03/10 05:57:53;;;;;;;3.45;2.10;;;;;;;-1.62;48.97;97773.27;1633299;86;21196;-63
2021/03/10 06:00:22;;;;;;;5.30;2.35;;;;;;;-1.61;49.88;97776.20;1633407;86;21156;-63
2021/03/10 06:03:15;;;;;;;3.90;3.35;;;;;;;-1.68;52.09;97780.77;1633424;86;21196;-63
2021/03/10 06:06:05;;;;;;;3.12;2.25;;;;;;;-1.59;50.14;97784.58;1644682;87;21184;-64
2021/03/10 06:08:34;;;;;;;12.43;3.17;;;;;;;-1.62;51.20;97786.83;1666072;86;21153;-64
2021/03/10 06:11:05;;;;;;;4.30;3.00;;;;;;;-1.57;51.82;97795.08;1666634;86;21153;-64
2021/03/10 06:13:33;;;;;;;5.20;2.90;;;;;;;-1.60;51.92;97795.23;1666458;85;21211;-64
2021/03/10 06:16:03;;;;;;;7.05;3.55;;;;;;;-1.56;51.77;97789.11;1666277;85;21554;-64
2021/03/10 06:18:35;;;;;;;5.30;3.90;;;;;;;-1.51;51.78;97796.05;1666365;86;21547;-64
2021/03/10 06:21:13;;;;;;;3.77;2.75;;;;;;;-1.47;50.90;97796.28;1666637;86;21204;-65
2021/03/10 06:26:37;;;;;;;3.10;2.50;;;;;;;-1.36;51.46;97802.61;1723381;82;20144;-62
2021/03/10 06:29:15;;;;;;;4.97;2.95;;;;;;;-1.30;51.50;97801.86;1726175;83;21167;-61
2021/03/10 06:31:43;;;;;;;2.40;2.17;;;;;;;-1.21;49.95;97801.87;1726216;83;21651;-61
2021/03/10 06:34:13;;;;;;;7.67;3.40;;;;;;;-1.13;50.42;97809.97;1726449;83;21174;-62
2021/03/10 06:36:48;;;;;;;7.15;4.60;;;;;;;-1.04;50.84;97807.78;1726376;83;21577;-62
2021/03/10 06:39:30;;;;;;;3.60;3.05;;;;;;;-0.91;50.45;97809.73;1726280;82;21297;-62
2021/03/10 06:41:59;;;;;;;3.77;2.77;;;;;;;-0.79;49.60;97818.05;1726167;82;21233;-62
2021/03/10 06:44:29;;;;;;;2.80;1.98;;;;;;;-0.68;49.41;97814.05;1726240;83;21230;-66
2021/03/10 06:47:25;;;;;;;9.10;3.58;;;;;;;-0.60;49.79;97816.22;1726383;82;21206;-62
2021/03/10 06:49:55;;;;;;;4.80;2.70;;;;;;;-0.42;48.59;97806.78;1647554;85;21588;-63
2021/03/10 06:52:23;;;;;;;4.40;3.45;;;;;;;-0.42;48.59;97806.78;1676271;85;21218;-63
2021/03/10 06:54:59;;;;;;;4.40;3.10;;;;;;;-0.19;49.57;97805.97;1676406;84;21600;-64
2021/03/10 06:57:28;;;;;;;11.08;4.00;;;;;;;-0.19;49.57;97805.97;1676935;84;21204;-70
2021/03/10 06:59:57;;;;;;;15.45;10.25;;;;;;;-0.07;50.10;97812.16;1684338;84;21176;-63
2021/03/10 07:02:29;;;;;;;56.25;28.52;;;;;;;-0.01;50.75;97811.41;1646883;85;21230;-62
2021/03/10 07:04:59;;;;;;;13.65;7.97;;;;;;;0.16;51.60;97821.97;1707345;83;21593;-63
2021/03/10 07:07:30;;;;;;;36.68;20.43;;;;;;;0.31;50.59;97810.92;1707473;83;21609;-63
2021/03/10 07:10:00;;;;;;;28.92;14.70;;;;;;;0.73;52.62;97815.43;1703319;83;21139;-61
2021/03/10 07:12:29;;;;;;;9.63;4.97;;;;;;;0.73;52.62;97815.43;1707492;83;21291;-61
2021/03/10 07:15:01;;;;;;;5.37;3.27;;;;;;;0.91;50.65;97823.33;1707604;83;21350;-63
2021/03/10 07:17:51;;;;;;;10.75;4.28;;;;;;;1.06;51.85;97815.23;1707551;83;21279;-62
2021/03/10 07:23:10;;;;;;;4.62;2.40;;;;;;;1.21;48.01;97825.86;1683342;85;21203;-62
2021/03/10 07:25:41;;;;;;;;;;;;;;;1.23;49.16;97817.66;1656445;86;21183;-63
2021/03/10 07:28:31;;;;;;;8.18;2.33;;;;;;;1.42;50.17;97823.36;1654160;85;20140;-62
2021/03/10 07:30:59;;;;;;;2.75;1.90;;;;;;;1.49;48.41;97825.55;1654093;87;21675;-62
2021/03/10 07:33:27;;;;;;;3.75;2.80;;;;;;;1.58;46.85;97825.02;1654025;85;21733;-61
2021/03/10 07:36:01;;;;;;;4.70;2.70;;;;;;;1.68;48.01;97823.09;1654023;86;21289;-62
2021/03/10 07:38:39;;;;;;;4.37;2.75;;;;;;;1.90;47.33;97823.92;1654180;87;21226;-62
2021/03/10 07:41:16;;;;;;;11.35;3.70;;;;;;;1.89;47.30;97823.09;1654119;86;21317;-62
2021/03/10 07:43:47;;;;;;;4.22;2.72;;;;;;;1.80;44.62;97823.64;1654181;85;21190;-62
2021/03/10 07:46:31;;;;;;;4.30;2.72;;;;;;;1.93;46.93;97825.02;1654232;87;21417;-63
2021/03/10 07:49:05;;;;;;;5.83;3.25;;;;;;;2.02;46.41;97828.76;1654545;86;21178;-63
2021/03/10 07:51:36;;;;;;;12.43;3.52;;;;;;;2.24;45.44;97821.40;1653330;86;21215;-62
2021/03/10 07:57:12;;;;;;;5.55;3.30;;;;;;;2.33;44.21;97819.07;1682334;85;21182;-65
2021/03/10 08:00:15;;;;;;;5.12;3.50;;;;;;;2.22;43.71;97814.25;1685985;85;21189;-64
2021/03/10 08:02:48;;;;;;;7.28;3.60;;;;;;;2.31;44.45;97818.81;1678732;84;21146;-62
2021/03/10 08:05:25;;;;;;;8.73;4.03;;;;;;;2.46;43.52;97818.31;1678542;85;21218;-62
2021/03/10 08:08:36;;;;;;;5.45;3.47;;;;;;;2.57;43.86;97827.45;1678559;85;21230;-64
2021/03/10 08:11:14;;;;;;;4.17;2.62;;;;;;;2.66;43.21;97824.30;1706953;84;21120;-63
2021/03/10 08:13:47;;;;;;;8.03;2.98;;;;;;;2.60;42.10;97819.56;1706958;84;21170;-63
2021/03/10 08:16:17;;;;;;;12.55;5.47;;;;;;;2.85;42.87;97815.78;1700977;84;21199;-63
2021/03/10 08:18:47;;;;;;;12.88;7.60;;;;;;;3.03;41.59;97804.81;1694459;85;21164;-63
2021/03/10 08:21:18;;;;;;;8.60;5.60;;;;;;;2.98;41.82;97808.95;1707150;83;21170;-62
2021/03/10 08:23:48;;;;;;;20.77;10.58;;;;;;;2.99;42.12;97804.20;1706862;84;21222;-63
2021/03/10 08:26:18;;;;;;;16.70;5.55;;;;;;;3.07;41.33;97799.84;1694484;83;21195;-63
2021/03/10 08:28:46;;;;;;;7.83;3.25;;;;;;;3.28;40.48;97800.53;1706985;84;21186;-63
2021/03/10 08:31:14;;;;;;;5.47;2.95;;;;;;;3.54;39.94;97784.66;1706884;84;21154;-63
2021/03/10 08:34:00;;;;;;;7.53;3.22;;;;;;;3.85;39.91;97787.73;1694208;85;21147;-63
2021/03/10 08:36:33;;;;;;;7.17;2.40;;;;;;;4.08;38.65;97783.94;1707215;84;21199;-63
2021/03/10 08:39:14;;;;;;;5.53;2.12;;;;;;;4.41;37.53;97782.47;1706802;84;21604;-63
2021/03/10 08:41:53;;;;;;;5.35;2.35;;;;;;;4.54;37.82;97780.68;1694284;85;21236;-63
2021/03/10 08:44:28;;;;;;;6.55;3.67;;;;;;;4.62;36.53;97777.92;1807938;77;28031;-63
2021/03/10 08:46:57;;;;;;;5.60;2.90;;;;;;;4.77;36.34;97772.95;1827322;78;21316;-63
2021/03/10 08:49:30;;;;;;;3.42;2.47;;;;;;;5.04;36.84;97777.83;1827361;78;21580;-62
2021/03/10 08:52:26;;;;;;;7.22;3.60;;;;;;;5.12;36.56;97778.55;1827581;78;21641;-64
2021/03/10 08:55:00;;;;;;;3.15;1.87;;;;;;;4.65;35.45;97780.27;1762546;81;22267;-63
2021/03/10 08:57:31;;;;;;;4.17;2.25;;;;;;;4.68;34.59;97777.92;1762736;81;21575;-63
2021/03/10 09:00:16;;;;;;;4.60;1.85;;;;;;;5.00;34.40;97780.27;1762587;80;21324;-63
2021/03/10 09:02:48;;;;;;;7.95;2.98;;;;;;;5.18;34.75;97780.20;1762588;80;21356;-62
2021/03/10 09:05:48;;;;;;;4.75;2.33;;;;;;;5.47;34.41;97781.08;1762575;81;21312;-63
2021/03/10 09:08:23;;;;;;;3.77;2.37;;;;;;;5.71;33.46;97776.19;1664354;85;21333;-64
2021/03/10 09:10:55;;;;;;;8.45;2.17;;;;;;;5.95;32.09;97779.13;1658890;85;21132;-63
2021/03/10 09:13:43;;;;;;;2.20;1.55;;;;;;;6.32;31.74;97768.05;1658760;85;21204;-65
2021/03/10 09:16:18;;;;;;;9.40;4.35;;;;;;;6.54;30.29;97767.98;1662899;86;21227;-63
2021/03/10 09:19:00;;;;;;;16.60;3.90;;;;;;;6.66;30.16;97760.55;1656337;85;22461;-64
2021/03/10 09:22:08;;;;;;;4.80;1.92;;;;;;;6.86;29.96;97764.11;1661946;86;21568;-64
2021/03/10 09:27:40;;;;;;;4.65;2.37;;;;;;;6.46;30.29;97762.14;1680461;84;21170;-62
2021/03/10 09:30:13;;;;;;;3.50;1.62;;;;;;;6.75;32.04;97763.69;1680633;84;21699;-63
2021/03/10 09:32:46;;;;;;;3.75;1.90;;;;;;;7.04;30.15;97768.58;1655612;85;21226;-63
2021/03/10 09:38:53;;;;;;;3.35;1.70;;;;;;;7.34;29.46;97761.86;1682680;85;21135;-64
2021/03/10 09:45:03;;;;;;;2.42;1.62;;;;;;;8.47;30.66;97757.73;1682803;85;21155;-63
2021/03/10 09:54:28;;;;;;;5.85;2.95;;;;;;;9.90;27.93;97752.79;1650643;86;21199;-63
2021/03/10 09:56:58;;;;;;;3.72;2.35;;;;;;;8.73;26.90;97751.06;1625887;87;21604;-64
2021/03/10 09:59:32;;;;;;;3.77;1.82;;;;;;;9.60;26.33;97751.75;1648667;87;21353;-62
2021/03/10 10:02:02;;;;;;;2.02;1.60;;;;;;;9.81;25.80;97750.22;1649728;87;21319;-62
2021/03/10 10:04:32;;;;;;;5.05;2.87;;;;;;;9.97;26.31;97739.58;1648538;87;21258;-63
2021/03/10 10:07:02;;;;;;;5.72;2.75;;;;;;;9.91;25.75;97748.42;1649911;86;21187;-62
2021/03/10 10:09:36;;;;;;;2.52;1.62;;;;;;;10.23;25.54;97744.13;1649120;86;21313;-63
2021/03/10 10:12:29;;;;;;;3.00;1.77;;;;;;;10.81;27.23;97748.44;1649419;86;21176;-63
2021/03/10 10:15:01;;;;;;;4.20;2.55;;;;;;;11.20;24.52;97743.70;1625616;87;21615;-63
2021/03/10 10:17:31;;;;;;;2.37;1.70;;;;;;;9.97;25.05;97740.05;1649906;87;21173;-64
2021/03/10 10:20:02;;;;;;;4.42;1.52;;;;;;;10.79;25.90;97731.69;1649913;87;21154;-62
2021/03/10 10:22:31;;;;;;;3.62;2.10;;;;;;;11.12;25.61;97736.67;1650142;87;21210;-64
2021/03/10 10:25:02;;;;;;;2.80;1.77;;;;;;;10.70;24.11;97742.17;1650348;87;21225;-63
2021/03/10 10:27:30;;;;;;;3.80;2.22;;;;;;;10.08;24.75;97740.36;1649853;86;21178;-63
2021/03/10 10:29:59;;;;;;;3.85;2.20;;;;;;;8.37;26.94;97750.41;1649899;87;21851;-63
2021/03/10 10:32:28;;;;;;;5.47;2.05;;;;;;;8.11;27.31;97751.36;1649967;86;21312;-62
2021/03/10 10:34:57;;;;;;;4.30;1.95;;;;;;;8.22;27.40;97750.42;1649817;87;21158;-62
2021/03/10 10:37:25;;;;;;;3.25;2.20;;;;;;;8.73;26.87;97747.18;1649915;87;21194;-64
2021/03/10 10:39:54;;;;;;;3.80;2.15;;;;;;;9.04;26.11;97744.78;1649742;87;21312;-64
2021/03/10 10:42:24;;;;;;;4.60;2.62;;;;;;;9.43;26.51;97744.70;1649927;87;21198;-62
2021/03/10 10:44:55;;;;;;;4.45;2.37;;;;;;;9.68;25.86;97745.38;1650068;86;21242;-64
2021/03/10 10:47:28;;;;;;;4.55;1.98;;;;;;;9.79;25.28;97747.80;1649793;87;21569;-62
2021/03/10 10:50:00;;;;;;;4.47;2.17;;;;;;;10.05;24.80;97740.15;1649630;87;21178;-69
2021/03/10 10:52:29;;;;;;;3.52;1.72;;;;;;;10.09;24.82;97731.59;1647877;87;21238;-63
2021/03/10 10:54:58;;;;;;;2.45;1.25;;;;;;;11.29;26.40;97734.98;1650370;87;21316;-64
2021/03/10 10:57:27;;;;;;;3.05;1.50;;;;;;;11.88;25.08;97731.12;1650460;86;21400;-63
2021/03/10 10:59:57;;;;;;;2.50;1.55;;;;;;;11.77;23.08;97730.09;1650404;87;21333;-70
2021/03/10 11:02:27;;;;;;;3.85;1.87;;;;;;;11.74;22.47;97723.09;1650283;87;21250;-65
2021/03/10 11:04:57;;;;;;;2.77;1.50;;;;;;;12.14;22.93;97727.65;1649904;87;21217;-65
2021/03/10 11:07:26;;;;;;;5.62;1.50;;;;;;;12.64;24.09;97715.39;1650005;86;21194;-68
2021/03/10 11:09:55;;;;;;;2.98;1.90;;;;;;;13.29;24.16;97718.81;1649985;87;21174;-65
2021/03/10 11:12:30;;;;;;;4.47;1.65;;;;;;;13.82;25.16;97717.84;1735071;81;21166;-64
2021/03/10 11:15:02;;;;;;;2.25;1.70;;;;;;;12.87;20.49;97712.95;1715835;82;21176;-65
2021/03/10 11:17:34;;;;;;;2.60;1.52;;;;;;;12.53;20.90;97703.95;1724200;82;21158;-65
2021/03/10 11:20:06;;;;;;;3.42;1.98;;;;;;;13.69;23.74;97710.56;1747295;82;21644;-64
2021/03/10 11:22:35;;;;;;;2.58;1.80;;;;;;;13.75;19.54;97698.14;1747182;81;21240;-64
2021/03/10 11:25:09;;;;;;;5.30;1.90;;;;;;;14.72;20.00;97691.91;1747134;81;21179;-62
2021/03/10 11:27:38;;;;;;;5.03;2.58;;;;;;;14.34;19.59;97692.80;1747141;81;21203;-64
2021/03/10 11:30:09;;;;;;;4.78;2.40;;;;;;;13.49;19.75;97684.53;1747093;81;21128;-63
2021/03/10 11:32:38;;;;;;;3.95;2.42;;;;;;;13.93;19.63;97688.78;1744698;81;21679;-63
2021/03/10 11:35:09;;;;;;;3.75;2.02;;;;;;;14.52;19.68;97684.21;1746882;81;21242;-64
2021/03/10 11:37:37;;;;;;;4.25;2.02;;;;;;;14.64;19.08;97683.31;1744698;81;21167;-64
2021/03/10 11:40:10;;;;;;;4.53;2.40;;;;;;;13.60;19.27;97684.98;1747102;81;21163;-63
2021/03/10 11:42:41;;;;;;;3.57;2.40;;;;;;;12.50;20.79;97679.53;1747432;81;21195;-62
2021/03/10 11:45:11;;;;;;;6.10;3.42;;;;;;;11.99;21.47;97673.24;1747275;82;21147;-68
2021/03/10 11:47:39;;;;;;;5.03;2.58;;;;;;;12.43;21.37;97672.05;1747256;81;21585;-63
2021/03/10 11:50:08;;;;;;;4.65;3.20;;;;;;;12.21;21.69;97670.06;1747056;81;21343;-63
2021/03/10 11:52:36;;;;;;;4.30;3.00;;;;;;;11.96;22.12;97670.97;1747155;81;21560;-63
2021/03/10 11:55:06;;;;;;;5.30;3.05;;;;;;;12.21;21.31;97669.58;1747145;81;21151;-63
2021/03/10 11:57:34;;;;;;;4.72;2.12;;;;;;;12.42;21.47;97671.71;1747395;81;21199;-63
2021/03/10 12:00:08;;;;;;;4.55;2.00;;;;;;;13.13;20.92;97667.17;1746938;81;21155;-64
2021/03/10 12:02:43;;;;;;;3.25;1.90;;;;;;;13.53;19.96;97666.27;1746898;82;21230;-63
2021/03/10 12:05:36;;;;;;;7.47;4.60;;;;;;;12.58;20.61;97660.01;1747152;81;21152;-63
2021/03/10 12:08:05;;;;;;;5.53;2.20;;;;;;;12.37;21.18;97640.94;1674331;85;21217;-62
2021/03/10 12:10:37;;;;;;;4.47;2.67;;;;;;;12.57;21.58;97654.47;1668737;85;21194;-64
2021/03/10 12:13:04;;;;;;;3.47;2.25;;;;;;;11.13;23.30;97658.20;1659803;86;21191;-64
2021/03/10 12:15:33;;;;;;;2.98;1.92;;;;;;;11.73;22.28;97654.64;1659848;86;21191;-64
2021/03/10 12:18:01;;;;;;;3.12;1.67;;;;;;;12.36;21.57;97651.05;1674685;86;21765;-64
2021/03/10 12:20:29;;;;;;;4.58;2.10;;;;;;;13.28;21.94;97652.47;1674534;86;21328;-65
2021/03/10 12:22:57;;;;;;;3.98;2.50;;;;;;;13.52;20.26;97656.31;1676208;85;21179;-65
2021/03/10 12:25:25;;;;;;;4.03;2.30;;;;;;;13.62;20.93;97650.39;1660308;86;21227;-68